Time;durP1;ratioP1;P1;durP2;ratioP2;P2;SDS_P1;SDS_P2;PMS_P1;PMS_P2;Temp;Humidity;BMP_temperature;BMP_pressure;BME280_temperature;BME280_humidity;BME280_pressure;Samples;Min_cycle;Max_cycle;Signal;HPM_P1;HPM_P2
2021/01/20 00:05:29;;;;;;;13.18;7.47;;;0.50;99.90;;;;;;20582705;28;20034;-55
2021/01/20 00:15:31;;;;;;;12.27;6.38;;;0.30;99.90;;;;;;20582144;28;20113;-56
2021/01/20 00:25:33;;;;;;;12.57;6.07;;;0.20;99.90;;;;;;20581140;28;20051;-56
2021/01/20 00:35:34;;;;;;;4.78;2.55;;;0.10;99.90;;;;;;20563910;28;20051;-57
2021/01/20 00:45:36;;;;;;;5.13;2.83;;;0.10;99.90;;;;;;20581388;28;20113;-56
2021/01/20 00:55:38;;;;;;;6.72;3.45;;;0.60;99.90;;;;;;20580100;28;20118;-57
2021/01/20 01:05:43;;;;;;;20.70;12.27;;;0.80;99.90;;;;;;20562939;28;20058;-52
2021/01/20 01:15:45;;;;;;;0.95;0.47;;;0.30;99.90;;;;;;20563625;28;20046;-55
2021/01/20 01:25:52;;;;;;;5.43;2.63;;;-0.20;99.90;;;;;;20570607;28;20043;-56
2021/01/20 01:35:55;;;;;;;1.15;0.30;;;0.30;99.90;;;;;;20575950;28;20434;-56
2021/01/20 01:45:57;;;;;;;0.40;0.10;;;1.00;99.90;;;;;;20576463;28;20038;-54
2021/01/20 01:55:59;;;;;;;0.35;0.20;;;1.50;99.90;;;;;;20558551;28;20039;-56
2021/01/20 02:06:12;;;;;;;0.80;0.30;;;1.60;99.90;;;;;;20543762;28;20042;-55
2021/01/20 02:16:22;;;;;;;0.40;0.20;;;1.50;99.90;;;;;;20573440;28;20046;-54
2021/01/20 02:27:01;;;;;;;1.27;0.50;;;1.70;99.90;;;;;;20572143;28;20035;-56
2021/01/20 02:37:16;;;;;;;0.93;0.40;;;1.80;99.90;;;;;;20570973;28;20051;-57
2021/01/20 02:47:36;;;;;;;1.00;0.63;;;1.90;99.90;;;;;;20554814;28;20090;-56
2021/01/20 02:57:44;;;;;;;1.02;0.50;;;1.80;99.90;;;;;;20555498;28;20105;-56
2021/01/20 03:07:51;;;;;;;1.20;0.60;;;1.90;99.90;;;;;;20553765;28;20039;-54
2021/01/20 03:17:53;;;;;;;2.08;0.47;;;1.90;99.90;;;;;;20551860;28;20094;-56
2021/01/20 03:27:55;;;;;;;1.25;0.45;;;2.10;99.90;;;;;;20567571;28;20440;-56
2021/01/20 03:37:57;;;;;;;4.20;0.50;;;2.30;99.90;;;;;;20584406;28;20551;-54
2021/01/20 03:47:59;;;;;;;2.50;0.60;;;2.40;99.90;;;;;;20582645;28;20517;-57
2021/01/20 03:58:01;;;;;;;1.70;0.40;;;2.60;99.90;;;;;;20583374;28;20046;-53
2021/01/20 04:08:03;;;;;;;2.88;0.40;;;2.50;99.90;;;;;;20582216;28;20085;-57
2021/01/20 04:18:05;;;;;;;0.73;0.30;;;2.30;99.90;;;;;;20548331;28;20109;-60
2021/01/20 04:28:07;;;;;;;0.73;0.25;;;2.20;99.90;;;;;;20582312;28;20066;-55
2021/01/20 04:38:09;;;;;;;2.58;0.40;;;2.10;99.90;;;;;;20580187;28;20109;-56
2021/01/20 04:48:13;;;;;;;2.08;0.98;;;2.20;99.90;;;;;;20579954;28;20047;-53
2021/01/20 04:58:14;;;;;;;15.07;6.70;;;2.70;99.90;;;;;;20553452;28;20440;-54
2021/01/20 05:08:16;;;;;;;10.15;5.45;;;1.80;99.90;;;;;;20595455;28;20034;-52
2021/01/20 05:18:18;;;;;;;10.35;5.18;;;0.90;99.90;;;;;;20593622;28;20047;-60
2021/01/20 05:28:24;;;;;;;22.67;12.07;;;1.40;99.90;;;;;;20578342;28;20085;-54
2021/01/20 05:38:54;;;;;;;23.17;11.13;;;0.60;99.90;;;;;;20575290;28;20047;-57
2021/01/20 05:48:56;;;;;;;22.30;11.85;;;-0.80;99.90;;;;;;20574277;28;20117;-55
2021/01/20 05:58:59;;;;;;;22.73;10.65;;;-1.20;99.90;;;;;;20592327;28;20070;-52
2021/01/20 06:09:01;;;;;;;20.50;10.57;;;-1.40;99.90;;;;;;20590574;28;20481;-57
2021/01/20 06:19:09;;;;;;;23.23;11.13;;;-1.30;99.90;;;;;;20572666;28;20571;-57
2021/01/20 06:29:14;;;;;;;25.20;12.82;;;-1.40;99.90;;;;;;20572577;28;20069;-56
2021/01/20 06:39:33;;;;;;;31.42;14.45;;;-1.60;99.90;;;;;;20571433;28;20058;-57
2021/01/20 06:49:35;;;;;;;29.92;15.52;;;-1.70;99.90;;;;;;20570479;28;20054;-57
2021/01/20 06:59:38;;;;;;;29.50;14.93;;;-1.70;99.90;;;;;;20587155;28;20046;-56
2021/01/20 07:09:58;;;;;;;28.80;14.60;;;-1.70;99.90;;;;;;20568667;28;20042;-57
2021/01/20 07:20:00;;;;;;;34.97;15.63;;;-1.60;99.90;;;;;;20567065;28;20050;-54
2021/01/20 07:30:14;;;;;;;31.05;14.98;;;-1.60;99.90;;;;;;20586305;28;20046;-56
2021/01/20 07:40:16;;;;;;;13.70;5.95;;;-1.40;99.90;;;;;;20566850;28;20034;-60
2021/01/20 07:50:19;;;;;;;30.50;15.35;;;-0.70;99.90;;;;;;20566804;28;20034;-56
2021/01/20 08:00:22;;;;;;;35.03;17.13;;;-0.30;99.90;;;;;;20550744;28;20240;-56
2021/01/20 08:10:24;;;;;;;36.35;16.80;;;-0.80;99.90;;;;;;20582473;28;20061;-57
2021/01/20 08:20:32;;;;;;;33.13;16.58;;;-0.70;99.90;;;;;;20563698;28;20490;-58
2021/01/20 08:30:35;;;;;;;29.23;14.05;;;-0.50;99.90;;;;;;20586931;28;20035;-57
2021/01/20 08:40:37;;;;;;;23.45;12.50;;;-0.40;99.90;;;;;;20607711;28;20043;-56
2021/01/20 08:50:42;;;;;;;25.48;13.43;;;-0.30;99.90;;;;;;20607813;28;20081;-57
2021/01/20 09:00:56;;;;;;;26.85;14.25;;;0.20;99.90;;;;;;20607659;28;20074;-57
2021/01/20 09:11:00;;;;;;;32.47;16.58;;;0.50;99.90;;;;;;20606719;28;20090;-53
2021/01/20 09:21:03;;;;;;;31.05;16.35;;;0.40;99.90;;;;;;20588630;28;20062;-57
2021/01/20 09:31:05;;;;;;;23.77;12.98;;;0.30;99.90;;;;;;20589434;28;20030;-55
2021/01/20 09:41:07;;;;;;;20.02;10.07;;;0.80;99.90;;;;;;20604237;28;20086;-56
2021/01/20 09:51:09;;;;;;;23.92;13.18;;;1.00;99.90;;;;;;20575773;28;20043;-56
2021/01/20 10:01:11;;;;;;;21.73;11.95;;;2.30;99.90;;;;;;20592523;28;20102;-57
2021/01/20 10:11:13;;;;;;;20.73;12.00;;;2.50;99.90;;;;;;20573727;28;20086;-58
2021/01/20 10:21:15;;;;;;;18.13;11.10;;;3.70;99.90;;;;;;20590788;28;20505;-57
2021/01/20 10:31:17;;;;;;;17.70;11.02;;;4.40;99.90;;;;;;20590755;28;20038;-60
2021/01/20 10:41:20;;;;;;;18.45;10.98;;;4.60;99.90;;;;;;20589328;28;20397;-60
2021/01/20 10:51:28;;;;;;;18.98;11.63;;;4.60;99.90;;;;;;20588178;28;20093;-57
2021/01/20 11:01:30;;;;;;;20.27;12.02;;;4.20;99.90;;;;;;20587287;28;20051;-61
2021/01/20 11:11:32;;;;;;;20.50;12.07;;;4.10;99.90;;;;;;20586298;28;20093;-58
2021/01/20 11:21:34;;;;;;;20.65;12.65;;;4.60;99.90;;;;;;20584714;28;20062;-60
2021/01/20 11:31:36;;;;;;;19.88;12.07;;;4.60;99.90;;;;;;20585355;28;20043;-60
2021/01/20 11:41:38;;;;;;;20.33;13.35;;;4.60;99.90;;;;;;20583683;28;20058;-61
2021/01/20 11:51:42;;;;;;;20.95;12.80;;;4.40;99.90;;;;;;20584024;28;20038;-58
2021/01/20 12:01:44;;;;;;;22.08;13.13;;;4.60;99.90;;;;;;20583682;28;20242;-58
2021/01/20 12:11:49;;;;;;;19.42;11.57;;;4.20;99.90;;;;;;20758884;23;20098;-65
2021/01/20 12:21:51;;;;;;;22.25;12.23;;;4.00;99.90;;;;;;20564799;28;20101;-64
2021/01/20 12:31:54;;;;;;;19.45;12.20;;;4.50;99.90;;;;;;20548115;28;20559;-64
2021/01/20 12:41:56;;;;;;;20.00;12.18;;;4.60;99.90;;;;;;20580937;28;20066;-64
2021/01/20 12:51:58;;;;;;;18.95;11.63;;;4.90;99.90;;;;;;20580900;28;20058;-65
2021/01/20 13:02:00;;;;;;;19.15;12.02;;;5.40;99.90;;;;;;20581634;28;20047;-65
2021/01/20 13:12:03;;;;;;;17.35;11.10;;;5.00;99.90;;;;;;20562780;28;20101;-65
2021/01/20 13:22:05;;;;;;;15.02;9.25;;;5.00;99.90;;;;;;20571382;28;20417;-65
2021/01/20 13:32:09;;;;;;;16.90;9.63;;;4.40;99.90;;;;;;20561175;28;20054;-64
2021/01/20 13:42:12;;;;;;;18.83;10.43;;;3.70;99.90;;;;;;20593084;28;20409;-64
2021/01/20 13:52:14;;;;;;;18.60;9.75;;;2.10;99.90;;;;;;20592548;28;20034;-64
2021/01/20 14:02:16;;;;;;;16.33;9.55;;;1.70;99.90;;;;;;20575164;28;20126;-64
2021/01/20 14:12:17;;;;;;;16.50;9.07;;;1.50;99.90;;;;;;20591318;28;20117;-64
2021/01/20 14:22:21;;;;;;;66.43;11.20;;;1.50;99.90;;;;;;20550401;28;20042;-64
2021/01/20 14:32:23;;;;;;;85.75;11.32;;;1.60;99.90;;;;;;20556409;28;20031;-64
2021/01/20 14:42:25;;;;;;;124.78;11.68;;;1.50;99.90;;;;;;20589653;28;20050;-64
2021/01/20 14:52:27;;;;;;;2.70;0.50;;;1.30;99.90;;;;;;20571254;28;20086;-64
2021/01/20 15:02:29;;;;;;;8.38;4.72;;;2.10;99.90;;;;;;20586800;28;20047;-65
2021/01/20 15:12:31;;;;;;;18.45;9.43;;;2.30;99.90;;;;;;20586988;28;20568;-63
2021/01/20 15:22:33;;;;;;;10.20;5.35;;;1.90;99.90;;;;;;20585023;28;20433;-64
2021/01/20 15:32:35;;;;;;;12.88;6.15;;;1.30;99.90;;;;;;20585021;28;20026;-64
2021/01/20 15:42:38;;;;;;;7.90;3.90;;;1.00;99.90;;;;;;20584497;28;20339;-65
2021/01/20 15:52:40;;;;;;;113.55;9.63;;;1.30;99.90;;;;;;20584309;28;20038;-64
2021/01/20 16:02:42;;;;;;;9.13;4.78;;;1.10;99.90;;;;;;20565810;28;20038;-64
2021/01/20 16:12:45;;;;;;;4.72;2.92;;;1.20;99.90;;;;;;20582646;28;20051;-64
2021/01/20 16:22:48;;;;;;;478.38;21.10;;;1.10;99.90;;;;;;20582359;28;20046;-64
2021/01/20 16:32:52;;;;;;;10.57;5.50;;;0.70;99.90;;;;;;20581441;28;20378;-65
2021/01/20 16:42:54;;;;;;;116.20;9.25;;;0.60;99.90;;;;;;20564826;28;20054;-64
2021/01/20 16:52:56;;;;;;;922.10;34.90;;;0.50;99.90;;;;;;20568724;28;20046;-64
2021/01/20 17:02:58;;;;;;;757.28;26.88;;;0.40;99.90;;;;;;20563075;28;20125;-64
2021/01/20 17:13:02;;;;;;;1161.25;38.45;;;0.30;99.90;;;;;;20579124;28;20043;-65
2021/01/20 17:23:05;;;;;;;340.83;13.95;;;0.20;99.90;;;;;;20595176;28;20051;-64
2021/01/20 17:33:06;;;;;;;471.55;18.38;;;0.20;99.90;;;;;;20577434;28;20058;-64
2021/01/20 17:43:10;;;;;;;3.38;1.50;;;0.30;99.90;;;;;;20595018;28;20047;-64
2021/01/20 17:53:12;;;;;;;16.27;3.22;;;0.40;99.90;;;;;;20593643;28;20319;-64
2021/01/20 18:03:13;;;;;;;5.07;2.80;;;1.00;99.90;;;;;;20574183;28;20559;-64
2021/01/20 18:13:16;;;;;;;864.55;28.50;;;0.80;99.90;;;;;;20591371;28;20093;-63
2021/01/20 18:23:18;;;;;;;5.45;3.08;;;0.60;99.90;;;;;;20572852;28;20567;-63
2021/01/20 18:33:20;;;;;;;305.20;11.57;;;0.70;99.90;;;;;;20590045;28;20047;-63
2021/01/20 18:43:22;;;;;;;208.40;7.63;;;1.00;99.90;;;;;;20573226;28;20066;-63
2021/01/20 18:53:24;;;;;;;245.70;7.18;;;0.80;99.90;;;;;;20571543;28;20038;-63
2021/01/20 19:03:27;;;;;;;396.95;11.93;;;0.80;99.90;;;;;;20587397;28;20067;-64
2021/01/20 19:13:31;;;;;;;156.25;6.40;;;0.70;99.90;;;;;;20568497;28;20046;-63
2021/01/20 19:23:33;;;;;;;2.10;1.30;;;0.80;99.90;;;;;;20585927;28;20101;-63
2021/01/20 19:33:36;;;;;;;2.08;1.30;;;0.80;99.90;;;;;;20568245;28;20089;-62
2021/01/20 19:43:38;;;;;;;8.45;1.60;;;0.80;99.90;;;;;;20585077;28;20968;-62
2021/01/20 19:53:40;;;;;;;597.85;20.00;;;0.90;99.90;;;;;;20584048;28;20031;-63
2021/01/20 20:03:42;;;;;;;420.98;12.30;;;0.90;99.90;;;;;;20565952;28;20547;-63
2021/01/20 20:13:45;;;;;;;318.65;9.30;;;0.80;99.90;;;;;;20582460;28;20097;-62
2021/01/20 20:23:48;;;;;;;553.15;17.58;;;0.80;99.90;;;;;;20582317;28;20153;-63
2021/01/20 20:33:51;;;;;;;192.77;5.80;;;0.70;99.90;;;;;;20581109;28;20074;-61
2021/01/20 20:43:54;;;;;;;137.80;4.13;;;0.70;99.90;;;;;;20581913;28;20090;-61
2021/01/20 20:53:58;;;;;;;49.50;2.00;;;0.70;99.90;;;;;;20564239;28;20043;-61
2021/01/20 21:03:59;;;;;;;18.52;0.90;;;0.70;99.90;;;;;;20580174;28;20055;-61
2021/01/20 21:14:02;;;;;;;0.47;0.28;;;0.70;99.90;;;;;;20580758;28;20039;-61
2021/01/20 21:24:04;;;;;;;0.30;0.10;;;0.70;99.90;;;;;;20579894;28;20076;-60
2021/01/20 21:34:08;;;;;;;267.48;9.48;;;0.70;99.90;;;;;;20563628;28;20035;-60
2021/01/20 21:44:10;;;;;;;283.20;9.52;;;0.70;99.90;;;;;;20589749;28;20090;-60
2021/01/20 21:54:13;;;;;;;160.68;4.75;;;0.70;99.90;;;;;;20593608;28;20504;-62
2021/01/20 22:04:15;;;;;;;150.05;4.38;;;0.70;99.90;;;;;;20574336;28;20058;-60
2021/01/20 22:14:17;;;;;;;183.43;4.43;;;0.70;99.90;;;;;;20592528;28;20635;-60
2021/01/20 22:24:19;;;;;;;233.52;6.82;;;0.70;99.90;;;;;;20573523;28;20109;-61
2021/01/20 22:34:21;;;;;;;102.40;2.50;;;0.70;99.90;;;;;;20590530;28;20061;-59
2021/01/20 22:44:23;;;;;;;31.40;0.90;;;0.80;99.90;;;;;;20589695;28;20034;-60
2021/01/20 22:54:25;;;;;;;130.93;3.80;;;0.80;99.90;;;;;;20555264;28;20031;-60
2021/01/20 23:04:28;;;;;;;182.77;4.43;;;0.80;99.90;;;;;;20570611;28;20062;-61
2021/01/20 23:14:31;;;;;;;72.15;1.77;;;0.80;99.90;;;;;;20588885;28;20035;-59
2021/01/20 23:24:33;;;;;;;0.20;0.10;;;0.80;99.90;;;;;;20552751;28;20077;-59
2021/01/20 23:34:34;;;;;;;3.03;0.32;;;0.80;99.90;;;;;;20536403;28;20046;-59
2021/01/20 23:44:36;;;;;;;105.38;3.25;;;0.80;99.90;;;;;;20567846;28;20393;-59
2021/01/20 23:54:38;;;;;;;0.28;0.20;;;0.80;99.90;;;;;;20584977;28;20031;-59
